Four Corners Regional Airport
KFMN : now visible

Airfield :











YOU CAN JOIN US ON...

 
LOGIN :

Register | Disclaimer

   EN    FR    IT 

 









Legend :    VFR   Marginal VFR   IFR   Intensive IFR   Very Intensive IFR
Visi :
Ceiling :
>= 8 km
>= 3000ft
5 to 8 km
1000 to 3000 ft
1500m to 5 km
500 to 1000 ft
800 to 1500m
200 to 500 ft
< 800m
< 200 ft
Symbols :   Thunderstorms  Fog  Heavy snow  Heavy precipitations  Wind > 20 kt







- Airport Elevation : 5506 ft


KFMN - Four Corners Regional

CURRENT METAR :
  • 210153Z 01003KT 10SM CLR 17/M03 A2987 RMK AO2 SLP083 T01671028

EXPIRED METARs :
  • 210053Z 28006KT 10SM BKN110 19/M03 A2989 RMK AO2 PK WND 28030/0010 SLP090 T01891028
  • 202353Z 26015KT 10SM CLR 19/M03 A2990 RMK AO2 PK WND 25034/2310 SLP093 T01941028 10244 20194 53004

TAF KFMN
Valid from the 21 at 00:00 until the 22 at 00:00 UTC


202329Z 2100/2124 25015G25KT P6SM VCSH BKN120
FM210200 32008KT P6SM BKN120
FM210800 08006KT P6SM BKN100
FM211800 26010G18KT P6SM FEW100
KZDV FIR / North America



MET'MAP, your aeronautical weather chart ! - Copyright ORBIFLY December 2007 - Disclaimer

ORBIFLY MET'MAP TEAM :

Programming & Development : Alexandra Zaïnal
Concept & Development : Baudouin d'Aumeries
Co-Development & Prog : Marc-Olivier Méhu
Technical & hardware support : Manuel Goepfert

Contact : metmap@orbifly.com




SOURCES & CREDITS :

   NOAA       Earth
Advisory